Time;durP1;ratioP1;P1;durP2;ratioP2;P2;SDS_P1;SDS_P2;PMS_P1;PMS_P2;Temp;Humidity;BMP_temperature;BMP_pressure;BME280_temperature;BME280_humidity;BME280_pressure;Samples;Min_cycle;Max_cycle;Signal;HPM_P1;HPM_P2
2023/07/03 00:00:04;;;;;;;11.18;5.60;;;;;;;;;;4947493;28;20110;-75
2023/07/03 00:02:30;;;;;;;15.95;7.43;;;;;;;;;;4957315;28;20045;-75
2023/07/03 00:04:55;;;;;;;16.83;7.22;;;;;;;;;;4953088;28;20032;-75
2023/07/03 00:07:20;;;;;;;108.28;14.13;;;;;;;;;;4955091;28;20031;-75
2023/07/03 00:09:46;;;;;;;16.10;7.18;;;;;;;;;;4950872;28;20030;-75
2023/07/03 00:12:11;;;;;;;13.07;6.40;;;;;;;;;;4967247;28;20078;-75
2023/07/03 00:14:38;;;;;;;13.68;6.68;;;;;;;;;;4953294;28;20089;-75
2023/07/03 00:17:04;;;;;;;13.45;6.32;;;;;;;;;;4945908;28;20529;-75
2023/07/03 00:19:30;;;;;;;15.13;7.13;;;;;;;;;;4968948;23;20054;-76
2023/07/03 00:22:00;;;;;;;17.10;7.50;;;;;;;;;;4959852;28;20023;-76
2023/07/03 00:24:26;;;;;;;10.98;5.45;;;;;;;;;;4968460;28;20115;-77
2023/07/03 00:26:51;;;;;;;15.45;6.88;;;;;;;;;;4964830;28;20129;-77
2023/07/03 00:29:17;;;;;;;13.95;6.25;;;;;;;;;;4969442;28;20490;-76
2023/07/03 00:31:42;;;;;;;15.68;6.97;;;;;;;;;;4973825;28;20022;-76
2023/07/03 00:34:07;;;;;;;15.52;6.82;;;;;;;;;;4978640;28;20406;-77
2023/07/03 00:36:33;;;;;;;12.30;6.00;;;;;;;;;;4978269;28;20019;-77
2023/07/03 00:38:59;;;;;;;13.63;6.15;;;;;;;;;;4967379;28;20019;-77
2023/07/03 00:41:26;;;;;;;12.15;5.72;;;;;;;;;;4965708;28;20034;-77
2023/07/03 00:43:51;;;;;;;10.13;4.82;;;;;;;;;;4958753;28;20030;-77
2023/07/03 00:46:17;;;;;;;16.95;7.63;;;;;;;;;;4958999;28;20050;-76
2023/07/03 00:48:44;;;;;;;6.93;4.72;;;;;;;;;;4973359;28;20483;-77
2023/07/03 00:51:11;;;;;;;17.00;7.45;;;;;;;;;;4972026;28;20030;-77
2023/07/03 00:53:36;;;;;;;18.38;6.93;;;;;;;;;;4973164;28;20029;-77
2023/07/03 00:56:05;;;;;;;8.80;5.00;;;;;;;;;;4972182;28;20030;-77
2023/07/03 00:58:31;;;;;;;14.70;6.35;;;;;;;;;;4978145;28;20031;-77
2023/07/03 01:01:15;;;;;;;13.73;7.00;;;;;;;;;;4968313;28;20018;-77
2023/07/03 01:03:46;;;;;;;14.13;7.15;;;;;;;;;;4966116;28;20537;-77
2023/07/03 01:06:19;;;;;;;16.60;7.35;;;;;;;;;;4970334;28;20681;-76
2023/07/03 01:08:49;;;;;;;15.23;6.75;;;;;;;;;;4977678;28;20026;-77
2023/07/03 01:11:14;;;;;;;12.20;6.43;;;;;;;;;;4969672;28;20105;-77
2023/07/03 01:13:41;;;;;;;11.45;6.15;;;;;;;;;;4971622;28;20121;-77
2023/07/03 01:16:07;;;;;;;8.88;5.47;;;;;;;;;;4971580;28;20489;-77
2023/07/03 01:18:33;;;;;;;11.82;6.53;;;;;;;;;;4974400;28;20018;-76
2023/07/03 01:21:19;;;;;;;10.10;5.70;;;;;;;;;;4977275;28;20038;-76
2023/07/03 01:23:51;;;;;;;15.30;7.07;;;;;;;;;;4974937;28;20029;-76
2023/07/03 01:26:19;;;;;;;16.63;7.43;;;;;;;;;;4976974;28;20057;-77
2023/07/03 01:28:49;;;;;;;15.35;6.82;;;;;;;;;;4978026;28;20033;-77
2023/07/03 01:31:16;;;;;;;14.90;6.80;;;;;;;;;;4976096;28;20493;-77
2023/07/03 01:33:44;;;;;;;12.00;6.22;;;;;;;;;;4966897;28;20034;-76
2023/07/03 01:36:12;;;;;;;8.75;4.95;;;;;;;;;;4979686;28;20019;-77
2023/07/03 01:38:41;;;;;;;13.93;6.57;;;;;;;;;;4974532;28;20046;-77
2023/07/03 01:41:08;;;;;;;13.57;6.70;;;;;;;;;;4983098;28;20504;-77
2023/07/03 01:43:34;;;;;;;15.77;7.22;;;;;;;;;;4973007;28;20509;-77
2023/07/03 01:46:01;;;;;;;15.70;7.00;;;;;;;;;;4975475;28;20034;-77
2023/07/03 01:48:31;;;;;;;11.63;6.60;;;;;;;;;;4974860;28;20034;-77
2023/07/03 01:50:57;;;;;;;9.82;6.00;;;;;;;;;;4971532;28;20022;-77
2023/07/03 01:53:29;;;;;;;16.27;7.38;;;;;;;;;;4982009;28;20034;-77
2023/07/03 01:56:03;;;;;;;15.70;7.20;;;;;;;;;;4974866;28;20019;-76
2023/07/03 01:58:42;;;;;;;10.57;6.03;;;;;;;;;;4973581;28;20026;-77
2023/07/03 02:01:15;;;;;;;9.90;5.60;;;;;;;;;;4970805;28;20035;-77
2023/07/03 02:03:46;;;;;;;10.05;5.80;;;;;;;;;;4984807;28;20065;-77
2023/07/03 02:06:15;;;;;;;;;;;;;;;;;;4977334;28;20029;-77
2023/07/03 02:08:41;;;;;;;10.70;6.28;;;;;;;;;;4971953;28;19997;-77
2023/07/03 02:11:18;;;;;;;10.30;5.22;;;;;;;;;;4980419;28;20122;-76
2023/07/03 02:13:43;;;;;;;9.95;5.50;;;;;;;;;;4976491;28;20029;-76
2023/07/03 02:16:09;;;;;;;15.93;7.07;;;;;;;;;;4976471;28;20031;-76
2023/07/03 02:18:35;;;;;;;14.63;6.22;;;;;;;;;;4966527;28;20041;-76
2023/07/03 02:21:00;;;;;;;12.55;6.25;;;;;;;;;;4969108;28;20483;-77
2023/07/03 02:23:26;;;;;;;8.63;5.03;;;;;;;;;;4974965;28;20613;-76
2023/07/03 02:25:51;;;;;;;12.15;5.47;;;;;;;;;;4985197;28;20034;-76
2023/07/03 02:28:18;;;;;;;10.30;5.78;;;;;;;;;;4976654;28;20033;-76
2023/07/03 02:30:43;;;;;;;13.68;6.22;;;;;;;;;;4971474;28;20031;-76
2023/07/03 02:33:10;;;;;;;11.40;5.55;;;;;;;;;;4973574;28;20018;-76
2023/07/03 02:35:37;;;;;;;9.38;5.13;;;;;;;;;;4980961;28;20106;-78
2023/07/03 02:38:03;;;;;;;15.23;5.47;;;;;;;;;;4980321;28;20124;-77
2023/07/03 02:40:28;;;;;;;14.25;7.10;;;;;;;;;;4973584;28;20559;-76
2023/07/03 02:42:53;;;;;;;12.98;5.75;;;;;;;;;;4981422;28;20022;-76
2023/07/03 02:45:19;;;;;;;12.85;5.90;;;;;;;;;;4972911;28;20085;-76
2023/07/03 02:47:45;;;;;;;11.73;6.03;;;;;;;;;;4978717;28;20054;-76
2023/07/03 02:50:10;;;;;;;11.30;4.72;;;;;;;;;;4974457;28;20022;-76
2023/07/03 02:52:36;;;;;;;12.25;5.57;;;;;;;;;;4976189;28;20027;-76
2023/07/03 02:55:01;;;;;;;15.77;5.22;;;;;;;;;;4967906;28;20031;-77
2023/07/03 02:57:28;;;;;;;14.13;6.43;;;;;;;;;;4975925;28;20030;-77
2023/07/03 02:59:53;;;;;;;10.85;5.07;;;;;;;;;;4975661;28;20054;-76
2023/07/03 03:02:19;;;;;;;9.73;5.18;;;;;;;;;;4968634;28;20026;-76
2023/07/03 03:04:45;;;;;;;8.57;5.28;;;;;;;;;;4973571;28;20088;-76
2023/07/03 03:07:11;;;;;;;7.80;4.63;;;;;;;;;;4970141;28;20059;-76
2023/07/03 03:09:36;;;;;;;9.95;4.85;;;;;;;;;;4980824;28;20054;-76
2023/07/03 03:12:02;;;;;;;8.27;5.18;;;;;;;;;;4968386;28;20374;-75
2023/07/03 03:14:27;;;;;;;7.72;4.70;;;;;;;;;;4970297;28;20026;-77
2023/07/03 03:16:53;;;;;;;8.80;4.80;;;;;;;;;;4973236;28;20580;-76
2023/07/03 03:19:19;;;;;;;9.18;4.68;;;;;;;;;;4963145;28;20035;-76
2023/07/03 03:21:44;;;;;;;7.13;4.45;;;;;;;;;;4967306;28;20014;-76
2023/07/03 03:24:09;;;;;;;8.55;4.60;;;;;;;;;;4967570;28;20134;-76
2023/07/03 03:26:35;;;;;;;8.93;4.75;;;;;;;;;;4973891;28;20355;-76
2023/07/03 03:29:01;;;;;;;7.05;4.30;;;;;;;;;;4969496;28;20391;-76
2023/07/03 03:31:26;;;;;;;12.05;5.47;;;;;;;;;;4965114;28;20027;-77
2023/07/03 03:33:51;;;;;;;8.55;4.93;;;;;;;;;;4973239;28;20027;-76
2023/07/03 03:36:17;;;;;;;7.32;4.47;;;;;;;;;;4971364;28;20495;-76
2023/07/03 03:38:42;;;;;;;9.13;4.72;;;;;;;;;;4966799;28;20018;-76
2023/07/03 03:41:08;;;;;;;11.07;5.70;;;;;;;;;;4969869;28;20476;-76
2023/07/03 03:43:33;;;;;;;11.05;4.95;;;;;;;;;;4977197;28;20105;-76
2023/07/03 03:46:00;;;;;;;14.73;6.07;;;;;;;;;;4970860;28;20076;-76
2023/07/03 03:48:27;;;;;;;11.18;5.57;;;;;;;;;;4963267;28;20023;-76
2023/07/03 03:50:53;;;;;;;12.55;5.72;;;;;;;;;;4964879;28;20188;-76
2023/07/03 03:53:19;;;;;;;12.30;6.45;;;;;;;;;;4978070;28;20075;-76
2023/07/03 03:55:49;;;;;;;14.38;6.72;;;;;;;;;;4977937;28;20026;-76
2023/07/03 03:58:15;;;;;;;12.07;6.03;;;;;;;;;;4965025;28;20023;-76
2023/07/03 04:00:41;;;;;;;17.38;7.00;;;;;;;;;;4971881;28;20030;-76
2023/07/03 04:03:06;;;;;;;13.00;6.53;;;;;;;;;;4971894;28;20430;-76
2023/07/03 04:05:32;;;;;;;17.83;6.40;;;;;;;;;;4975209;28;20510;-75
2023/07/03 04:07:57;;;;;;;10.25;4.68;;;;;;;;;;4963109;28;20112;-77
2023/07/03 04:10:23;;;;;;;8.65;4.95;;;;;;;;;;4972461;28;20562;-76
2023/07/03 04:12:48;;;;;;;13.57;5.57;;;;;;;;;;4973116;28;20026;-77
2023/07/03 04:15:13;;;;;;;11.35;5.28;;;;;;;;;;4973359;28;20030;-76
2023/07/03 04:17:39;;;;;;;11.07;5.47;;;;;;;;;;4977553;28;20034;-76
2023/07/03 04:20:10;;;;;;;13.98;5.47;;;;;;;;;;4971233;28;20053;-76
2023/07/03 04:22:35;;;;;;;14.68;5.45;;;;;;;;;;4966344;28;20442;-76
2023/07/03 04:25:02;;;;;;;16.63;5.57;;;;;;;;;;4972724;28;20030;-77
2023/07/03 04:27:27;;;;;;;13.93;5.13;;;;;;;;;;4963006;28;20034;-76
2023/07/03 04:29:53;;;;;;;11.60;4.15;;;;;;;;;;4970247;28;20030;-77
2023/07/03 04:32:18;;;;;;;9.95;3.92;;;;;;;;;;4966777;28;20031;-76
2023/07/03 04:34:44;;;;;;;9.50;4.13;;;;;;;;;;4968163;28;20544;-77
2023/07/03 04:37:09;;;;;;;8.00;4.07;;;;;;;;;;4970982;28;20052;-76
2023/07/03 04:39:35;;;;;;;8.32;4.03;;;;;;;;;;4968339;28;20027;-76
2023/07/03 04:42:00;;;;;;;9.27;4.05;;;;;;;;;;4967862;28;20110;-76
2023/07/03 04:44:27;;;;;;;7.82;3.30;;;;;;;;;;4967461;28;20046;-76
2023/07/03 04:46:55;;;;;;;10.38;3.72;;;;;;;;;;4966908;28;20499;-76
2023/07/03 04:49:26;;;;;;;9.77;3.80;;;;;;;;;;4972841;28;20503;-76
2023/07/03 04:51:55;;;;;;;9.68;4.00;;;;;;;;;;4978134;28;20053;-76
2023/07/03 04:54:20;;;;;;;6.78;3.50;;;;;;;;;;4964021;28;20773;-76
2023/07/03 04:56:48;;;;;;;10.38;3.42;;;;;;;;;;4967860;28;20081;-75
2023/07/03 04:59:14;;;;;;;7.82;3.97;;;;;;;;;;4977903;28;20036;-75
2023/07/03 05:01:42;;;;;;;10.82;3.50;;;;;;;;;;4969497;28;20050;-76
2023/07/03 05:04:08;;;;;;;9.98;3.47;;;;;;;;;;4964915;28;20030;-76
2023/07/03 05:06:34;;;;;;;6.18;2.85;;;;;;;;;;4969032;28;20022;-76
2023/07/03 05:08:59;;;;;;;8.35;3.08;;;;;;;;;;4965404;28;20483;-76
2023/07/03 05:11:24;;;;;;;8.43;3.00;;;;;;;;;;4967849;28;20126;-77
2023/07/03 05:13:50;;;;;;;9.27;3.47;;;;;;;;;;4970919;28;20022;-76
2023/07/03 05:16:15;;;;;;;12.25;3.30;;;;;;;;;;4975114;28;20434;-77
2023/07/03 05:18:41;;;;;;;9.13;2.63;;;;;;;;;;4969123;28;20041;-77
2023/07/03 05:21:06;;;;;;;5.30;2.63;;;;;;;;;;4967437;28;20134;-77
2023/07/03 05:23:32;;;;;;;5.97;3.10;;;;;;;;;;4968051;28;20026;-77
2023/07/03 05:25:57;;;;;;;6.43;3.40;;;;;;;;;;4980244;28;20070;-78
2023/07/03 05:28:24;;;;;;;8.65;3.03;;;;;;;;;;4980941;28;20034;-77
2023/07/03 05:30:56;;;;;;;10.25;3.05;;;;;;;;;;4977178;28;20030;-77
2023/07/03 05:33:22;;;;;;;8.55;2.75;;;;;;;;;;4969058;28;20030;-78
2023/07/03 05:35:48;;;;;;;8.77;3.25;;;;;;;;;;4967083;28;20114;-79
2023/07/03 05:38:13;;;;;;;10.20;3.00;;;;;;;;;;4979024;28;20041;-78
2023/07/03 05:40:38;;;;;;;4.25;2.67;;;;;;;;;;4977674;28;20475;-78
2023/07/03 05:43:04;;;;;;;6.07;3.00;;;;;;;;;;4974344;28;20102;-78
2023/07/03 05:45:29;;;;;;;7.28;2.45;;;;;;;;;;4965229;28;20025;-78
2023/07/03 05:47:54;;;;;;;7.40;2.60;;;;;;;;;;4972358;28;20054;-78
2023/07/03 05:50:20;;;;;;;5.07;2.28;;;;;;;;;;4980015;28;20431;-78
2023/07/03 05:52:45;;;;;;;5.80;2.88;;;;;;;;;;4974636;28;20058;-78
2023/07/03 05:55:11;;;;;;;4.70;2.40;;;;;;;;;;4977844;28;20030;-78
2023/07/03 05:57:37;;;;;;;10.25;2.88;;;;;;;;;;4975222;28;20105;-78
2023/07/03 06:00:10;;;;;;;8.50;2.58;;;;;;;;;;4980735;28;20026;-78
2023/07/03 06:02:35;;;;;;;6.95;2.38;;;;;;;;;;4963986;28;20046;-78
2023/07/03 06:05:01;;;;;;;8.50;3.38;;;;;;;;;;4978029;28;20026;-78
2023/07/03 06:07:26;;;;;;;9.48;2.70;;;;;;;;;;4982384;28;20121;-77
2023/07/03 06:09:52;;;;;;;7.60;2.45;;;;;;;;;;4979379;28;20025;-78
2023/07/03 06:12:17;;;;;;;7.28;3.10;;;;;;;;;;4976522;28;20074;-78
2023/07/03 06:14:42;;;;;;;7.72;3.00;;;;;;;;;;4972762;28;20027;-78
2023/07/03 06:17:08;;;;;;;7.53;2.67;;;;;;;;;;4967766;28;20045;-78
2023/07/03 06:19:33;;;;;;;7.28;2.50;;;;;;;;;;4967380;28;20034;-78
2023/07/03 06:21:58;;;;;;;4.47;2.00;;;;;;;;;;4977357;28;20690;-78
2023/07/03 06:24:24;;;;;;;4.75;2.63;;;;;;;;;;4975669;28;20030;-79
2023/07/03 06:26:51;;;;;;;7.75;2.40;;;;;;;;;;4973918;28;20084;-78
2023/07/03 06:29:16;;;;;;;8.15;2.60;;;;;;;;;;4976823;28;20057;-79
2023/07/03 06:31:42;;;;;;;5.78;2.50;;;;;;;;;;4957242;28;20050;-78
2023/07/03 06:34:07;;;;;;;8.82;2.95;;;;;;;;;;4966572;28;20669;-78
2023/07/03 06:36:34;;;;;;;9.40;2.45;;;;;;;;;;4969308;28;20037;-78
2023/07/03 06:39:01;;;;;;;9.20;2.70;;;;;;;;;;4969593;28;20057;-78
2023/07/03 06:41:29;;;;;;;7.65;2.42;;;;;;;;;;4972078;28;20039;-79
2023/07/03 06:43:55;;;;;;;5.68;2.38;;;;;;;;;;4966652;28;20030;-78
2023/07/03 06:46:21;;;;;;;9.05;2.78;;;;;;;;;;4971236;28;20490;-78
2023/07/03 06:48:46;;;;;;;7.45;2.55;;;;;;;;;;4971441;28;20031;-79
2023/07/03 06:51:13;;;;;;;5.90;2.95;;;;;;;;;;4971381;28;20019;-78
2023/07/03 06:53:39;;;;;;;7.05;2.80;;;;;;;;;;4969757;28;20026;-79
2023/07/03 06:56:06;;;;;;;8.80;2.45;;;;;;;;;;4973877;28;20018;-78
2023/07/03 06:58:33;;;;;;;5.07;2.17;;;;;;;;;;4977701;28;20434;-78
2023/07/03 07:01:08;;;;;;;6.53;2.10;;;;;;;;;;4974031;28;20041;-78
2023/07/03 07:03:34;;;;;;;4.55;2.42;;;;;;;;;;4967163;28;20133;-77
2023/07/03 07:06:08;;;;;;;7.85;2.85;;;;;;;;;;4971661;28;20118;-76
2023/07/03 07:08:33;;;;;;;9.02;2.10;;;;;;;;;;4976802;28;20026;-77
2023/07/03 07:10:59;;;;;;;2.78;1.88;;;;;;;;;;4976142;28;20671;-76
2023/07/03 07:13:24;;;;;;;8.85;3.13;;;;;;;;;;4975485;28;20044;-76
2023/07/03 07:15:49;;;;;;;9.88;2.45;;;;;;;;;;4969511;28;20030;-76
2023/07/03 07:18:15;;;;;;;6.30;1.92;;;;;;;;;;4972239;28;20118;-76
2023/07/03 07:20:41;;;;;;;8.10;2.78;;;;;;;;;;4980463;28;20030;-77
2023/07/03 07:23:07;;;;;;;7.55;2.65;;;;;;;;;;4976075;28;20039;-76
2023/07/03 07:25:33;;;;;;;6.50;2.30;;;;;;;;;;4971605;28;20106;-76
2023/07/03 07:28:00;;;;;;;5.53;2.03;;;;;;;;;;4968429;28;20567;-76
2023/07/03 07:30:25;;;;;;;6.47;2.60;;;;;;;;;;4977404;28;20106;-77
2023/07/03 07:32:51;;;;;;;5.47;1.90;;;;;;;;;;4978474;28;20494;-76
2023/07/03 07:35:17;;;;;;;5.95;1.95;;;;;;;;;;4973920;28;20031;-77
2023/07/03 07:37:42;;;;;;;3.00;1.63;;;;;;;;;;4974678;28;20538;-77
2023/07/03 07:40:08;;;;;;;5.35;1.88;;;;;;;;;;4964795;28;20034;-77
2023/07/03 07:42:34;;;;;;;5.18;2.20;;;;;;;;;;4975801;28;20019;-77
2023/07/03 07:44:59;;;;;;;6.40;2.90;;;;;;;;;;4978988;28;20034;-76
2023/07/03 07:47:25;;;;;;;6.70;2.50;;;;;;;;;;4978982;28;20043;-77
2023/07/03 07:49:50;;;;;;;5.00;2.15;;;;;;;;;;4969884;28;20037;-77
2023/07/03 07:52:15;;;;;;;6.50;2.15;;;;;;;;;;4978377;28;20584;-77
2023/07/03 07:54:42;;;;;;;6.15;2.10;;;;;;;;;;4981569;28;20030;-77
2023/07/03 07:57:08;;;;;;;8.35;2.22;;;;;;;;;;4978516;28;20392;-77
2023/07/03 07:59:36;;;;;;;4.38;1.80;;;;;;;;;;4972976;28;20037;-76
2023/07/03 08:02:02;;;;;;;4.65;1.83;;;;;;;;;;4976074;28;20030;-77
2023/07/03 08:04:28;;;;;;;6.07;1.98;;;;;;;;;;4980901;28;20310;-76
2023/07/03 08:06:53;;;;;;;3.58;1.77;;;;;;;;;;4978138;28;21439;-77
2023/07/03 08:09:21;;;;;;;6.20;1.92;;;;;;;;;;4976186;28;20026;-77
2023/07/03 08:11:47;;;;;;;6.45;1.92;;;;;;;;;;4968358;28;20090;-77
2023/07/03 08:14:12;;;;;;;3.90;1.80;;;;;;;;;;4972688;28;20046;-77
2023/07/03 08:16:37;;;;;;;8.40;2.05;;;;;;;;;;4981571;28;20030;-76
2023/07/03 08:19:03;;;;;;;6.35;2.10;;;;;;;;;;4979643;28;20390;-77
2023/07/03 08:21:28;;;;;;;6.57;1.92;;;;;;;;;;4978056;28;20034;-77
2023/07/03 08:23:54;;;;;;;4.40;1.63;;;;;;;;;;4969372;28;20499;-77
2023/07/03 08:26:22;;;;;;;3.10;1.40;;;;;;;;;;4985948;28;20061;-77
2023/07/03 08:28:48;;;;;;;5.53;1.63;;;;;;;;;;4982617;28;20034;-77
2023/07/03 08:31:13;;;;;;;5.97;1.55;;;;;;;;;;4979589;28;20029;-77
2023/07/03 08:33:38;;;;;;;6.18;2.13;;;;;;;;;;4968746;28;20030;-77
2023/07/03 08:36:05;;;;;;;3.63;1.70;;;;;;;;;;4972855;28;20030;-77
2023/07/03 08:38:30;;;;;;;3.53;1.45;;;;;;;;;;4975830;28;20018;-77
2023/07/03 08:41:00;;;;;;;4.82;1.85;;;;;;;;;;4968973;28;20072;-76
2023/07/03 08:43:38;;;;;;;2.42;1.70;;;;;;;;;;4964055;28;20027;-77
2023/07/03 08:46:08;;;;;;;8.57;2.28;;;;;;;;;;4975205;28;20506;-77
2023/07/03 08:48:35;;;;;;;3.30;1.80;;;;;;;;;;4979752;28;20030;-77
2023/07/03 08:51:04;;;;;;;3.13;1.63;;;;;;;;;;4977893;28;20260;-77
2023/07/03 08:53:37;;;;;;;9.05;2.15;;;;;;;;;;4971256;28;20034;-77
2023/07/03 08:56:07;;;;;;;3.88;1.60;;;;;;;;;;4969586;28;20511;-77
2023/07/03 08:58:32;;;;;;;5.35;1.98;;;;;;;;;;4979158;28;20031;-78
2023/07/03 09:01:04;;;;;;;7.80;2.03;;;;;;;;;;4976186;28;20141;-77
2023/07/03 09:03:51;;;;;;;6.10;2.03;;;;;;;;;;4977080;28;20058;-77
2023/07/03 09:06:27;;;;;;;7.28;2.22;;;;;;;;;;4969452;28;20102;-77
2023/07/03 09:08:53;;;;;;;4.78;2.03;;;;;;;;;;4976427;28;20048;-77
2023/07/03 09:11:20;;;;;;;6.40;2.28;;;;;;;;;;4972659;28;21561;-77
2023/07/03 09:13:50;;;;;;;5.80;2.10;;;;;;;;;;4975139;28;20034;-77
2023/07/03 09:16:22;;;;;;;3.70;1.50;;;;;;;;;;4975533;28;20573;-78
2023/07/03 09:18:56;;;;;;;6.13;2.33;;;;;;;;;;4966120;28;20473;-77
2023/07/03 09:21:24;;;;;;;4.60;1.80;;;;;;;;;;4973925;28;20026;-78
2023/07/03 09:24:01;;;;;;;5.88;1.85;;;;;;;;;;4974912;28;20030;-77
2023/07/03 09:26:42;;;;;;;6.95;2.00;;;;;;;;;;4971555;28;20094;-78
2023/07/03 09:29:08;;;;;;;;;;;;;;;;;;4968203;28;20078;-77
2023/07/03 09:31:33;;;;;;;6.60;2.38;;;;;;;;;;4981885;28;19930;-77
2023/07/03 09:33:59;;;;;;;5.50;1.98;;;;;;;;;;4972720;28;20023;-77
2023/07/03 09:36:36;;;;;;;4.13;1.98;;;;;;;;;;4973550;28;20109;-77
2023/07/03 09:39:10;;;;;;;4.05;1.95;;;;;;;;;;4968564;28;20196;-77
2023/07/03 09:41:36;;;;;;;4.88;1.80;;;;;;;;;;4976363;28;20057;-77
2023/07/03 09:44:17;;;;;;;5.53;1.88;;;;;;;;;;4979915;28;21181;-77
2023/07/03 09:46:45;;;;;;;2.20;1.50;;;;;;;;;;4976528;28;20107;-77
2023/07/03 09:49:24;;;;;;;5.78;2.00;;;;;;;;;;4976879;28;20027;-76
2023/07/03 09:51:51;;;;;;;4.85;1.90;;;;;;;;;;4975747;28;20015;-78
2023/07/03 09:54:26;;;;;;;4.35;2.03;;;;;;;;;;4983706;28;20094;-78
2023/07/03 09:56:51;;;;;;;3.38;1.52;;;;;;;;;;4981155;28;20030;-77
2023/07/03 09:59:19;;;;;;;4.40;1.92;;;;;;;;;;4983651;28;20037;-76
2023/07/03 10:01:46;;;;;;;8.98;2.25;;;;;;;;;;4979088;28;20030;-77
2023/07/03 10:04:14;;;;;;;4.38;2.35;;;;;;;;;;4980386;28;20033;-77
2023/07/03 10:06:51;;;;;;;4.18;1.90;;;;;;;;;;4979223;28;20387;-78
2023/07/03 10:09:24;;;;;;;6.45;2.10;;;;;;;;;;4984269;28;20027;-77
2023/07/03 10:11:53;;;;;;;3.55;1.90;;;;;;;;;;4977530;28;20034;-78
2023/07/03 10:14:46;;;;;;;5.63;1.85;;;;;;;;;;4978972;28;20037;-77
2023/07/03 10:17:13;;;;;;;5.88;2.03;;;;;;;;;;4984373;28;20109;-78
2023/07/03 10:19:42;;;;;;;3.90;1.92;;;;;;;;;;4987447;23;20054;-75
2023/07/03 10:22:09;;;;;;;9.00;2.40;;;;;;;;;;4971191;28;20073;-76
2023/07/03 10:24:35;;;;;;;3.45;1.30;;;;;;;;;;4973300;28;20114;-75
2023/07/03 10:27:02;;;;;;;3.60;1.45;;;;;;;;;;4967895;28;20105;-76
2023/07/03 10:29:44;;;;;;;2.97;1.40;;;;;;;;;;4971731;28;20034;-76
2023/07/03 10:32:13;;;;;;;4.78;2.22;;;;;;;;;;4970583;28;20127;-75
2023/07/03 10:34:48;;;;;;;4.80;1.73;;;;;;;;;;4968088;28;20026;-75
2023/07/03 10:37:17;;;;;;;4.85;2.00;;;;;;;;;;4974998;28;20035;-76
2023/07/03 10:40:12;;;;;;;5.88;2.08;;;;;;;;;;4980488;28;20026;-76
2023/07/03 10:42:57;;;;;;;5.05;2.05;;;;;;;;;;4975065;28;20109;-75
2023/07/03 10:45:25;;;;;;;5.15;1.80;;;;;;;;;;4957182;28;20039;-76
2023/07/03 10:48:06;;;;;;;4.45;1.80;;;;;;;;;;4974313;28;20031;-76
2023/07/03 10:50:40;;;;;;;8.10;2.20;;;;;;;;;;4972579;28;20118;-76
2023/07/03 10:53:11;;;;;;;8.95;2.40;;;;;;;;;;4972146;28;20110;-76
2023/07/03 10:56:09;;;;;;;7.28;2.25;;;;;;;;;;4972327;28;20410;-76
2023/07/03 10:58:53;;;;;;;3.50;1.60;;;;;;;;;;4985345;28;20096;-75
2023/07/03 11:01:34;;;;;;;6.43;2.15;;;;;;;;;;4974597;28;20015;-76
2023/07/03 11:04:08;;;;;;;6.07;2.08;;;;;;;;;;4974244;28;20364;-75
2023/07/03 11:07:07;;;;;;;5.07;2.08;;;;;;;;;;4961622;28;20026;-75
2023/07/03 11:09:35;;;;;;;5.15;1.95;;;;;;;;;;4958907;28;20042;-76
2023/07/03 11:12:13;;;;;;;5.32;1.95;;;;;;;;;;4968371;28;20391;-75
2023/07/03 11:14:44;;;;;;;4.60;1.60;;;;;;;;;;4974332;28;20049;-75
2023/07/03 11:17:21;;;;;;;3.63;1.70;;;;;;;;;;4967184;28;20019;-76
2023/07/03 11:20:05;;;;;;;4.00;1.70;;;;;;;;;;4966500;28;20022;-75
2023/07/03 11:23:02;;;;;;;6.32;1.67;;;;;;;;;;4972914;28;20109;-76
2023/07/03 11:25:32;;;;;;;4.75;1.83;;;;;;;;;;4951766;28;20491;-76
2023/07/03 11:28:14;;;;;;;6.38;1.90;;;;;;;;;;4967305;28;20209;-76
2023/07/03 11:30:44;;;;;;;6.45;2.05;;;;;;;;;;4967035;28;20102;-75
2023/07/03 11:33:10;;;;;;;3.22;2.10;;;;;;;;;;4973442;28;20056;-76
2023/07/03 11:35:35;;;;;;;4.95;2.38;;;;;;;;;;4975313;28;20050;-76
2023/07/03 11:38:06;;;;;;;4.18;1.80;;;;;;;;;;4969613;28;20101;-76
2023/07/03 11:40:59;;;;;;;5.13;1.83;;;;;;;;;;4971458;28;20034;-76
2023/07/03 11:43:34;;;;;;;3.30;1.55;;;;;;;;;;4969252;28;20049;-76
2023/07/03 11:45:59;;;;;;;6.40;2.08;;;;;;;;;;4970395;28;20487;-76
2023/07/03 11:48:32;;;;;;;5.35;2.20;;;;;;;;;;4969287;28;20097;-76
2023/07/03 11:51:30;;;;;;;6.63;2.22;;;;;;;;;;4967355;28;20026;-76
2023/07/03 11:53:58;;;;;;;7.70;2.45;;;;;;;;;;4970897;28;20167;-76
2023/07/03 11:56:30;;;;;;;3.60;2.08;;;;;;;;;;4968713;28;20018;-76
2023/07/03 11:59:07;;;;;;;5.82;2.45;;;;;;;;;;4966693;28;20118;-76
2023/07/03 12:01:32;;;;;;;5.50;2.15;;;;;;;;;;4958816;28;20502;-76
2023/07/03 12:04:04;;;;;;;4.55;2.00;;;;;;;;;;4968893;28;20084;-76
2023/07/03 12:06:39;;;;;;;6.80;2.45;;;;;;;;;;4965452;28;20137;-76
2023/07/03 12:09:30;;;;;;;3.80;1.67;;;;;;;;;;4964877;28;20022;-76
2023/07/03 12:12:03;;;;;;;7.00;2.60;;;;;;;;;;4969701;28;20478;-76
2023/07/03 12:14:40;;;;;;;6.72;2.25;;;;;;;;;;4968565;28;20085;-76
2023/07/03 12:17:36;;;;;;;5.95;2.15;;;;;;;;;;4969234;28;20061;-76
2023/07/03 12:20:13;;;;;;;5.38;2.00;;;;;;;;;;4960271;28;20131;-76
2023/07/03 12:22:50;;;;;;;5.28;2.17;;;;;;;;;;4967603;28;20034;-76
2023/07/03 12:25:21;;;;;;;3.95;1.83;;;;;;;;;;4968793;28;20026;-76
2023/07/03 12:27:49;;;;;;;6.28;2.47;;;;;;;;;;4970573;28;20034;-75
2023/07/03 12:30:23;;;;;;;6.05;2.03;;;;;;;;;;4967524;28;20027;-76
2023/07/03 12:32:50;;;;;;;6.70;1.90;;;;;;;;;;4963228;28;20014;-76
2023/07/03 12:35:16;;;;;;;4.32;1.83;;;;;;;;;;4968675;28;20015;-76
2023/07/03 12:37:48;;;;;;;4.30;1.63;;;;;;;;;;4985927;28;20022;-76
2023/07/03 12:40:16;;;;;;;7.03;2.30;;;;;;;;;;4965596;28;20023;-76
2023/07/03 12:42:46;;;;;;;5.28;1.80;;;;;;;;;;4964759;28;20038;-76
2023/07/03 12:45:18;;;;;;;5.50;2.23;;;;;;;;;;4965225;28;20503;-76
2023/07/03 12:47:46;;;;;;;4.90;1.92;;;;;;;;;;4971360;28;20280;-76
2023/07/03 12:50:18;;;;;;;4.05;1.90;;;;;;;;;;4966524;28;20034;-76
2023/07/03 12:52:44;;;;;;;5.80;2.20;;;;;;;;;;4966881;28;20491;-76
2023/07/03 12:55:11;;;;;;;5.00;1.98;;;;;;;;;;4961721;28;20052;-76
2023/07/03 12:57:37;;;;;;;3.90;1.83;;;;;;;;;;4964009;28;20650;-76
2023/07/03 13:00:06;;;;;;;5.45;2.30;;;;;;;;;;4966183;28;20034;-76
2023/07/03 13:02:32;;;;;;;8.27;2.45;;;;;;;;;;4969349;28;20479;-76
2023/07/03 13:04:59;;;;;;;4.97;2.13;;;;;;;;;;4961723;28;20720;-76
2023/07/03 13:07:25;;;;;;;6.82;2.42;;;;;;;;;;4968054;28;20027;-76
2023/07/03 13:09:56;;;;;;;4.72;2.13;;;;;;;;;;4967632;28;20066;-76
2023/07/03 13:12:25;;;;;;;4.10;2.03;;;;;;;;;;4973323;28;20026;-76
2023/07/03 13:15:06;;;;;;;3.92;2.00;;;;;;;;;;4973125;28;20022;-76
2023/07/03 13:17:32;;;;;;;3.75;1.88;;;;;;;;;;4972068;28;20030;-76
2023/07/03 13:20:17;;;;;;;5.68;2.35;;;;;;;;;;4971376;28;20097;-76
2023/07/03 13:22:48;;;;;;;5.47;2.05;;;;;;;;;;4969650;28;20451;-76
2023/07/03 13:25:52;;;;;;;4.45;2.03;;;;;;;;;;4970841;28;20033;-76
2023/07/03 13:28:31;;;;;;;5.35;1.92;;;;;;;;;;4960154;28;20454;-76
2023/07/03 13:31:19;;;;;;;6.18;2.10;;;;;;;;;;4969756;28;20018;-76
2023/07/03 13:34:12;;;;;;;3.40;1.70;;;;;;;;;;4967402;28;20022;-76
2023/07/03 13:36:50;;;;;;;3.60;2.05;;;;;;;;;;4974264;28;20419;-76
2023/07/03 13:39:18;;;;;;;5.88;1.92;;;;;;;;;;4973408;28;20120;-76
2023/07/03 13:41:45;;;;;;;3.00;1.77;;;;;;;;;;4970563;28;20485;-76
2023/07/03 13:44:14;;;;;;;5.28;1.85;;;;;;;;;;4976991;28;20026;-76
2023/07/03 13:46:41;;;;;;;4.72;1.90;;;;;;;;;;4974172;28;20031;-76
2023/07/03 13:49:08;;;;;;;4.25;1.98;;;;;;;;;;4971347;28;20436;-76
2023/07/03 13:51:35;;;;;;;3.72;1.85;;;;;;;;;;4969471;28;20475;-76
2023/07/03 13:54:02;;;;;;;4.88;2.08;;;;;;;;;;4970825;28;20062;-76
2023/07/03 13:56:28;;;;;;;3.92;1.80;;;;;;;;;;4971911;28;20027;-76
2023/07/03 13:58:54;;;;;;;4.10;1.90;;;;;;;;;;4960479;28;20372;-76
2023/07/03 14:01:20;;;;;;;5.18;2.00;;;;;;;;;;4967193;28;20046;-76
2023/07/03 14:03:46;;;;;;;6.13;2.40;;;;;;;;;;4970475;28;20471;-76
2023/07/03 14:06:13;;;;;;;6.10;2.30;;;;;;;;;;4959945;28;20077;-76
2023/07/03 14:08:39;;;;;;;7.00;2.60;;;;;;;;;;4968554;28;20038;-76
2023/07/03 14:11:04;;;;;;;4.32;2.10;;;;;;;;;;4970149;28;20379;-76
2023/07/03 14:13:30;;;;;;;4.68;2.03;;;;;;;;;;4968137;28;20125;-76
2023/07/03 14:15:56;;;;;;;6.15;2.10;;;;;;;;;;4971162;28;20088;-76
2023/07/03 14:18:21;;;;;;;3.45;1.77;;;;;;;;;;4973058;28;20038;-76
2023/07/03 14:20:48;;;;;;;3.90;1.83;;;;;;;;;;4974023;28;20706;-76
2023/07/03 14:23:16;;;;;;;4.30;2.28;;;;;;;;;;4961179;28;20027;-76
2023/07/03 14:25:41;;;;;;;6.13;1.98;;;;;;;;;;4969183;28;20375;-76
2023/07/03 14:28:07;;;;;;;4.95;2.30;;;;;;;;;;4968939;28;20034;-76
2023/07/03 14:30:32;;;;;;;3.90;2.25;;;;;;;;;;4987252;28;20062;-76
2023/07/03 14:32:58;;;;;;;4.13;1.80;;;;;;;;;;4972885;28;20051;-76
2023/07/03 14:35:24;;;;;;;7.03;2.65;;;;;;;;;;4983592;28;20034;-76
2023/07/03 14:37:49;;;;;;;5.70;2.03;;;;;;;;;;4968917;28;20038;-76
2023/07/03 14:40:15;;;;;;;5.25;1.75;;;;;;;;;;4970627;28;20022;-76
2023/07/03 14:42:40;;;;;;;4.75;1.90;;;;;;;;;;4959672;28;20081;-76
2023/07/03 14:45:06;;;;;;;5.82;2.38;;;;;;;;;;4968133;28;20045;-76
2023/07/03 14:47:32;;;;;;;3.13;1.98;;;;;;;;;;4970049;28;20022;-76
2023/07/03 14:49:57;;;;;;;5.85;2.60;;;;;;;;;;4969705;28;20364;-76